METAR Data
IDs: Format: Raw Decoded Include TAF

Data at: 1826 UTC 26 Sep 2021

METAR for:KHVS (Hartsville Rgnl, SC, US)
Text:KHVS 261815Z AUTO 00000KT 10SM FEW050 25/13 A3011 RMK AO2
Temperature: 25.0°C ( 77°F)
Dewpoint: 13.0°C ( 55°F) [RH = 47%]
Pressure (altimeter):30.11 inches Hg (1019.7 mb)
Winds:calm
Visibility:10 or more sm (16+ km)
Ceiling:at least 12,000 feet AGL
Clouds: few clouds at 5000 feet AGL
QC Flag:automated observation with no human augmentation

TAF for:KHVS (Hartsville Rgnl, SC, US)
Text:No data found